Time;durP1;ratioP1;P1;durP2;ratioP2;P2;SDS_P1;SDS_P2;PMS_P1;PMS_P2;Temp;Humidity;BMP_temperature;BMP_pressure;BME280_temperature;BME280_humidity;BME280_pressure;Samples;Min_cycle;Max_cycle;Signal;HPM_P1;HPM_P2
2022/10/08 00:00:04;;;;;;;0.20;0.20;;;12.50;99.90;;;;;;5024467;28;20539;-91
2022/10/08 00:02:30;;;;;;;0.10;0.10;;;12.50;99.90;;;;;;5026586;28;20493;-88
2022/10/08 00:04:55;;;;;;;0.20;0.20;;;12.60;99.90;;;;;;5011920;28;20512;-89
2022/10/08 00:07:21;;;;;;;0.20;0.20;;;12.50;99.90;;;;;;5026371;28;20188;-89
2022/10/08 00:09:46;;;;;;;0.20;0.20;;;12.50;99.90;;;;;;5027689;28;20184;-87
2022/10/08 00:12:12;;;;;;;0.20;0.20;;;12.50;99.90;;;;;;5029031;28;20219;-87
2022/10/08 00:14:39;;;;;;;0.20;0.20;;;12.40;99.90;;;;;;5026488;28;20212;-87
2022/10/08 00:17:04;;;;;;;0.10;0.10;;;12.40;99.90;;;;;;5020310;28;20274;-87
2022/10/08 00:19:30;;;;;;;0.10;0.10;;;12.50;99.90;;;;;;5029331;28;20879;-86
2022/10/08 00:21:56;;;;;;;0.20;0.20;;;12.40;99.90;;;;;;5024249;28;20183;-90
2022/10/08 00:24:22;;;;;;;0.20;0.20;;;12.40;99.90;;;;;;5030254;28;20211;-85
2022/10/08 00:26:48;;;;;;;0.20;0.20;;;12.40;99.90;;;;;;5018062;28;20203;-86
2022/10/08 00:29:17;;;;;;;0.10;0.10;;;12.40;99.90;;;;;;5026702;28;20453;-87
2022/10/08 00:31:44;;;;;;;0.20;0.20;;;12.40;99.90;;;;;;5024969;28;20522;-88
2022/10/08 00:34:13;;;;;;;0.10;0.10;;;12.30;99.90;;;;;;5027985;28;20444;-89
2022/10/08 00:36:39;;;;;;;0.10;0.10;;;12.40;99.90;;;;;;5028942;28;20442;-89
2022/10/08 00:39:17;;;;;;;0.10;0.10;;;12.40;99.90;;;;;;5019218;28;20510;-89
2022/10/08 00:41:45;;;;;;;0.20;0.20;;;12.40;99.90;;;;;;5024937;28;20934;-88
2022/10/08 00:44:49;;;;;;;0.20;0.20;;;12.40;99.90;;;;;;5025961;28;20516;-89
2022/10/08 00:47:34;;;;;;;0.17;0.17;;;12.40;99.90;;;;;;5027056;28;20973;-89
2022/10/08 00:50:23;;;;;;;0.10;0.10;;;12.50;99.90;;;;;;5027000;28;20435;-89
2022/10/08 00:52:50;;;;;;;0.10;0.10;;;12.50;99.90;;;;;;5016731;28;20450;-88
2022/10/08 00:55:19;;;;;;;0.10;0.10;;;12.50;99.90;;;;;;5027448;28;20473;-88
2022/10/08 00:57:45;;;;;;;0.10;0.10;;;12.50;99.90;;;;;;5022053;28;20442;-88
2022/10/08 01:00:22;;;;;;;0.20;0.20;;;12.50;99.90;;;;;;5024838;28;20623;-88
2022/10/08 01:02:48;;;;;;;0.10;0.10;;;12.50;99.90;;;;;;5019301;28;20473;-87
2022/10/08 01:05:16;;;;;;;0.10;0.10;;;12.50;99.90;;;;;;5033503;28;20497;-87
2022/10/08 01:08:02;;;;;;;0.10;0.10;;;12.50;99.90;;;;;;5022476;28;20212;-89
2022/10/08 01:10:47;;;;;;;0.10;0.10;;;12.60;99.90;;;;;;5029262;28;20458;-87
2022/10/08 01:13:29;;;;;;;0.10;0.10;;;12.50;99.90;;;;;;5025258;28;20445;-90
2022/10/08 01:16:10;;;;;;;0.20;0.20;;;12.60;99.90;;;;;;5017849;28;20731;-90
2022/10/08 01:18:55;;;;;;;0.20;0.20;;;12.60;99.90;;;;;;5027118;28;20439;-88
2022/10/08 01:21:30;;;;;;;0.10;0.10;;;12.60;99.90;;;;;;5014272;28;20450;-91
2022/10/08 01:24:20;;;;;;;0.10;0.10;;;12.60;99.90;;;;;;5017556;28;20482;-87
2022/10/08 01:27:05;;;;;;;0.10;0.10;;;12.70;99.90;;;;;;5022168;28;20442;-89
2022/10/08 01:29:41;;;;;;;0.20;0.20;;;12.60;99.90;;;;;;5021073;28;20947;-89
2022/10/08 01:32:13;;;;;;;0.10;0.10;;;12.60;99.90;;;;;;5022489;28;20465;-86
2022/10/08 01:34:59;;;;;;;0.20;0.20;;;12.60;99.90;;;;;;5015971;28;20474;-88
2022/10/08 01:37:36;;;;;;;0.20;0.20;;;12.70;99.90;;;;;;5013807;28;20455;-87
2022/10/08 01:40:08;;;;;;;0.20;0.20;;;12.60;99.90;;;;;;5017720;28;20488;-89
2022/10/08 01:42:38;;;;;;;0.10;0.10;;;12.70;99.90;;;;;;5024380;28;20568;-89
2022/10/08 01:45:09;;;;;;;0.10;0.10;;;12.70;99.90;;;;;;5020252;28;20539;-88
2022/10/08 01:47:38;;;;;;;0.10;0.10;;;12.70;99.90;;;;;;5022305;28;20461;-87
2022/10/08 01:50:17;;;;;;;0.10;0.10;;;12.70;99.90;;;;;;5026949;28;20454;-88
2022/10/08 01:52:48;;;;;;;0.20;0.20;;;12.70;99.90;;;;;;5027023;28;20450;-90
2022/10/08 01:55:26;;;;;;;0.20;0.20;;;12.70;99.90;;;;;;5021538;28;20442;-84
2022/10/08 01:57:54;;;;;;;0.10;0.10;;;12.70;99.90;;;;;;5022435;28;20455;-86
2022/10/08 02:00:19;;;;;;;0.10;0.10;;;12.70;99.90;;;;;;5031572;28;20473;-88
2022/10/08 02:02:45;;;;;;;0.13;0.13;;;12.60;99.90;;;;;;5025494;28;20532;-87
2022/10/08 02:05:11;;;;;;;0.10;0.10;;;12.60;99.90;;;;;;5020369;28;20882;-86
2022/10/08 02:07:41;;;;;;;0.10;0.10;;;12.70;99.90;;;;;;5021664;28;20238;-89
2022/10/08 02:10:16;;;;;;;0.10;0.10;;;12.70;99.90;;;;;;5021810;28;21013;-88
2022/10/08 02:12:42;;;;;;;0.20;0.20;;;12.60;99.90;;;;;;5021236;28;20489;-88
2022/10/08 02:15:21;;;;;;;0.10;0.10;;;12.60;99.90;;;;;;5019314;28;20450;-86
2022/10/08 02:18:08;;;;;;;0.13;0.13;;;12.70;99.90;;;;;;5013319;28;20453;-89
2022/10/08 02:20:39;;;;;;;0.20;0.20;;;12.70;99.90;;;;;;5024804;28;20449;-87
2022/10/08 02:23:45;;;;;;;0.10;0.10;;;12.70;99.90;;;;;;5023847;28;20974;-89
2022/10/08 02:26:15;;;;;;;0.20;0.20;;;12.70;99.90;;;;;;4985546;28;20947;-87
2022/10/08 02:29:06;;;;;;;0.10;0.10;;;12.70;99.90;;;;;;5016007;28;21108;-86
2022/10/08 02:31:44;;;;;;;0.10;0.10;;;12.60;99.90;;;;;;5030370;28;20949;-85
2022/10/08 02:34:28;;;;;;;0.10;0.10;;;12.50;99.90;;;;;;5025298;28;20860;-86
2022/10/08 02:37:15;;;;;;;0.10;0.10;;;12.40;99.90;;;;;;5027482;28;20918;-84
2022/10/08 02:39:45;;;;;;;0.10;0.10;;;12.30;99.90;;;;;;5029139;28;20524;-85
2022/10/08 02:42:16;;;;;;;0.10;0.10;;;12.20;99.90;;;;;;5027810;28;21126;-85
2022/10/08 02:44:54;;;;;;;0.20;0.20;;;12.10;99.90;;;;;;5025876;28;20484;-85
2022/10/08 02:47:24;;;;;;;0.20;0.20;;;12.10;99.90;;;;;;5014632;28;20938;-87
2022/10/08 02:49:54;;;;;;;0.20;0.20;;;12.00;99.90;;;;;;5023550;28;20453;-86
2022/10/08 02:52:23;;;;;;;0.20;0.20;;;11.90;99.90;;;;;;5029020;28;20437;-87
2022/10/08 02:54:52;;;;;;;0.10;0.10;;;11.90;99.90;;;;;;5032293;28;20511;-85
2022/10/08 02:57:21;;;;;;;0.20;0.20;;;11.80;99.90;;;;;;5011886;28;20934;-86
2022/10/08 02:59:47;;;;;;;0.10;0.10;;;11.80;99.90;;;;;;5032546;28;20446;-87
2022/10/08 03:02:26;;;;;;;0.20;0.20;;;11.80;99.90;;;;;;5027543;28;20434;-86
2022/10/08 03:04:58;;;;;;;0.13;0.13;;;11.80;99.90;;;;;;5033477;28;20468;-86
2022/10/08 03:07:28;;;;;;;0.20;0.20;;;11.90;99.90;;;;;;5020966;28;20786;-87
2022/10/08 03:09:55;;;;;;;0.10;0.10;;;11.90;99.90;;;;;;5026910;28;20461;-87
2022/10/08 03:12:21;;;;;;;0.20;0.20;;;11.80;99.90;;;;;;5030292;28;20432;-87
2022/10/08 03:14:48;;;;;;;0.20;0.20;;;11.90;99.90;;;;;;5035194;28;20847;-87
2022/10/08 03:17:20;;;;;;;0.20;0.20;;;11.80;99.90;;;;;;5026438;28;20219;-85
2022/10/08 03:19:46;;;;;;;0.20;0.20;;;11.80;99.90;;;;;;5030042;28;20447;-88
2022/10/08 03:22:11;;;;;;;0.20;0.20;;;11.80;99.90;;;;;;5027785;28;20832;-87
2022/10/08 03:24:37;;;;;;;0.20;0.20;;;11.80;99.90;;;;;;5031014;28;20266;-88
2022/10/08 03:27:03;;;;;;;0.20;0.20;;;11.80;99.90;;;;;;5027374;28;20195;-88
2022/10/08 03:29:28;;;;;;;0.20;0.20;;;11.80;99.90;;;;;;5028804;28;20199;-86
2022/10/08 03:31:54;;;;;;;0.20;0.20;;;11.70;99.90;;;;;;5026202;28;20440;-86
2022/10/08 03:34:19;;;;;;;0.20;0.20;;;11.70;99.90;;;;;;5028933;28;20224;-87
2022/10/08 03:36:45;;;;;;;0.20;0.20;;;11.70;99.90;;;;;;5029633;28;20191;-86
2022/10/08 03:39:11;;;;;;;0.20;0.20;;;11.70;99.90;;;;;;5029718;28;20195;-87
2022/10/08 03:41:36;;;;;;;0.20;0.20;;;11.60;99.90;;;;;;5029544;28;20291;-88
2022/10/08 03:44:02;;;;;;;0.20;0.20;;;11.70;99.90;;;;;;5029019;28;20267;-88
2022/10/08 03:46:28;;;;;;;0.20;0.20;;;11.70;99.90;;;;;;5026503;28;20682;-87
2022/10/08 03:48:53;;;;;;;0.20;0.20;;;11.70;99.90;;;;;;5027184;28;20199;-85
2022/10/08 03:51:20;;;;;;;0.20;0.20;;;11.60;99.90;;;;;;5017431;28;20184;-87
2022/10/08 03:53:46;;;;;;;0.20;0.20;;;11.60;99.90;;;;;;5027901;28;20188;-86
2022/10/08 03:56:14;;;;;;;0.20;0.20;;;11.60;99.90;;;;;;5024113;28;20446;-86
2022/10/08 03:58:40;;;;;;;0.20;0.20;;;11.60;99.90;;;;;;5028034;28;20457;-86
2022/10/08 04:01:10;;;;;;;0.20;0.20;;;11.60;99.90;;;;;;5015192;28;20435;-87
2022/10/08 04:03:35;;;;;;;0.20;0.20;;;11.50;99.90;;;;;;5020939;28;20257;-87
2022/10/08 04:06:01;;;;;;;0.20;0.20;;;11.50;99.90;;;;;;5018385;28;20446;-87
2022/10/08 04:08:27;;;;;;;0.20;0.20;;;11.50;99.90;;;;;;5021324;28;20195;-87
2022/10/08 04:10:53;;;;;;;0.20;0.20;;;11.50;99.90;;;;;;5023901;28;20804;-87
2022/10/08 04:13:19;;;;;;;0.20;0.20;;;11.50;99.90;;;;;;5030588;28;20905;-88
2022/10/08 04:15:46;;;;;;;0.20;0.20;;;11.50;99.90;;;;;;5029751;28;20438;-86
2022/10/08 04:18:12;;;;;;;0.20;0.20;;;11.50;99.90;;;;;;5022448;28;20957;-87
2022/10/08 04:20:41;;;;;;;0.20;0.20;;;11.50;99.90;;;;;;5028238;28;20991;-87
2022/10/08 04:23:07;;;;;;;0.20;0.20;;;11.50;99.90;;;;;;5019060;28;20628;-88
2022/10/08 04:25:35;;;;;;;0.20;0.20;;;11.50;99.90;;;;;;5026762;28;20761;-88
2022/10/08 04:28:01;;;;;;;0.20;0.20;;;11.40;99.90;;;;;;5021334;28;20450;-89
2022/10/08 04:30:26;;;;;;;0.20;0.20;;;11.40;99.90;;;;;;5028010;28;20477;-87
2022/10/08 04:32:52;;;;;;;0.20;0.20;;;11.40;99.90;;;;;;5016214;28;20827;-87
2022/10/08 04:35:17;;;;;;;0.20;0.20;;;11.30;99.90;;;;;;5021556;28;20297;-88
2022/10/08 04:37:43;;;;;;;0.20;0.20;;;11.30;99.90;;;;;;5029112;28;20264;-89
2022/10/08 04:40:09;;;;;;;0.20;0.20;;;11.30;99.90;;;;;;5019685;28;20188;-88
2022/10/08 04:42:34;;;;;;;0.20;0.20;;;11.30;99.90;;;;;;5014432;28;20405;-88
2022/10/08 04:44:59;;;;;;;0.20;0.20;;;11.30;99.90;;;;;;5027142;28;20204;-87
2022/10/08 04:47:25;;;;;;;0.20;0.20;;;11.30;99.90;;;;;;5025818;28;20194;-89
2022/10/08 04:49:50;;;;;;;0.20;0.20;;;11.30;99.90;;;;;;5029681;28;20195;-89
2022/10/08 04:52:17;;;;;;;0.20;0.20;;;11.30;99.90;;;;;;5027796;28;20219;-87
2022/10/08 04:54:43;;;;;;;0.20;0.20;;;11.30;99.90;;;;;;5031299;28;20188;-89
2022/10/08 04:57:09;;;;;;;0.20;0.20;;;11.30;99.90;;;;;;5018963;28;20922;-86
2022/10/08 04:59:34;;;;;;;0.20;0.20;;;11.40;99.90;;;;;;5026522;28;20445;-87
2022/10/08 05:02:00;;;;;;;0.20;0.20;;;11.40;99.90;;;;;;5021745;28;20644;-87
2022/10/08 05:04:26;;;;;;;0.20;0.20;;;11.40;99.90;;;;;;5023163;28;20747;-86
2022/10/08 05:06:51;;;;;;;0.10;0.10;;;11.40;99.90;;;;;;5022456;28;20282;-88
2022/10/08 05:09:17;;;;;;;0.20;0.20;;;11.40;99.90;;;;;;5029336;28;20202;-86
2022/10/08 05:11:42;;;;;;;0.20;0.20;;;11.40;99.90;;;;;;5019018;28;20183;-85
2022/10/08 05:14:08;;;;;;;0.20;0.20;;;11.40;99.90;;;;;;5014070;28;20188;-86
2022/10/08 05:16:34;;;;;;;0.20;0.20;;;11.30;99.90;;;;;;5012685;28;20218;-89
2022/10/08 05:19:00;;;;;;;0.20;0.20;;;11.30;99.90;;;;;;5011710;28;20415;-87
2022/10/08 05:21:27;;;;;;;0.20;0.20;;;11.30;99.90;;;;;;5035487;28;20193;-89
2022/10/08 05:24:01;;;;;;;0.20;0.20;;;11.40;99.90;;;;;;5024073;28;20268;-88
2022/10/08 05:26:30;;;;;;;0.20;0.20;;;11.30;99.90;;;;;;5025388;28;21214;-87
2022/10/08 05:28:58;;;;;;;0.20;0.20;;;11.30;99.90;;;;;;5022738;28;20458;-86
2022/10/08 05:31:26;;;;;;;0.20;0.20;;;11.30;99.90;;;;;;5021072;28;20530;-87
2022/10/08 05:33:52;;;;;;;0.20;0.20;;;11.30;99.90;;;;;;5030592;28;20515;-87
2022/10/08 05:36:20;;;;;;;0.20;0.20;;;11.40;99.90;;;;;;5020085;28;20542;-90
2022/10/08 05:38:46;;;;;;;0.20;0.20;;;11.30;99.90;;;;;;5018143;28;20447;-86
2022/10/08 05:41:13;;;;;;;0.20;0.20;;;11.30;99.90;;;;;;5022560;28;20455;-86
2022/10/08 05:43:39;;;;;;;0.20;0.20;;;11.30;99.90;;;;;;5029161;28;20230;-88
2022/10/08 05:46:05;;;;;;;0.20;0.20;;;11.30;99.90;;;;;;5022012;28;20437;-89
2022/10/08 05:48:30;;;;;;;0.20;0.20;;;11.30;99.90;;;;;;5026120;28;20478;-85
2022/10/08 05:50:56;;;;;;;0.20;0.20;;;11.30;99.90;;;;;;5011512;28;20214;-91
2022/10/08 05:53:21;;;;;;;0.20;0.20;;;11.30;99.90;;;;;;5021213;28;20187;-89
2022/10/08 05:55:47;;;;;;;0.20;0.20;;;11.30;99.90;;;;;;5025828;28;20314;-89
2022/10/08 05:58:12;;;;;;;0.20;0.20;;;11.40;99.90;;;;;;5031631;28;20196;-88
2022/10/08 06:00:38;;;;;;;0.20;0.20;;;11.40;99.90;;;;;;5015957;28;20191;-88
2022/10/08 06:03:03;;;;;;;0.20;0.20;;;11.40;99.90;;;;;;5024095;28;20297;-88
2022/10/08 06:05:29;;;;;;;0.20;0.20;;;11.40;99.90;;;;;;5025493;28;20750;-88
2022/10/08 06:07:56;;;;;;;0.20;0.20;;;11.40;99.90;;;;;;5025128;28;20203;-87
2022/10/08 06:10:23;;;;;;;0.20;0.20;;;11.40;99.90;;;;;;5022188;28;20187;-90
2022/10/08 06:12:48;;;;;;;0.20;0.20;;;11.40;99.90;;;;;;5026107;28;20507;-90
2022/10/08 06:15:15;;;;;;;0.20;0.20;;;11.40;99.90;;;;;;5023676;28;20438;-89
2022/10/08 06:17:40;;;;;;;0.13;0.13;;;11.40;99.90;;;;;;5024830;28;20250;-90
2022/10/08 06:20:06;;;;;;;0.10;0.10;;;11.50;99.90;;;;;;5024134;28;20543;-88
2022/10/08 06:22:32;;;;;;;0.20;0.20;;;11.50;99.90;;;;;;5015084;28;20196;-88
2022/10/08 06:24:57;;;;;;;0.10;0.10;;;11.40;99.90;;;;;;5019508;28;20447;-90
2022/10/08 06:27:23;;;;;;;0.10;0.10;;;11.40;99.90;;;;;;5025205;28;20647;-87
2022/10/08 06:29:48;;;;;;;0.20;0.20;;;11.40;99.90;;;;;;5023526;28;20180;-92
2022/10/08 06:32:14;;;;;;;0.20;0.20;;;11.50;99.90;;;;;;5028601;28;20211;-93
2022/10/08 06:34:40;;;;;;;0.20;0.20;;;11.50;99.90;;;;;;5031967;28;20220;-91
2022/10/08 06:37:06;;;;;;;0.20;0.20;;;11.50;99.90;;;;;;5023189;28;20182;-93
2022/10/08 06:39:32;;;;;;;0.20;0.20;;;11.60;99.90;;;;;;5026186;28;20806;-95
2022/10/08 06:41:57;;;;;;;0.20;0.20;;;11.60;99.90;;;;;;5026575;28;20239;-91
2022/10/08 06:44:23;;;;;;;0.20;0.20;;;11.70;99.90;;;;;;5030078;28;20292;-90
2022/10/08 06:46:48;;;;;;;0.20;0.20;;;11.70;99.90;;;;;;5031647;28;20183;-90
2022/10/08 06:49:14;;;;;;;0.20;0.20;;;11.80;99.90;;;;;;5026643;28;20203;-87
2022/10/08 06:51:39;;;;;;;0.20;0.20;;;11.80;99.90;;;;;;5015979;28;20250;-90
2022/10/08 06:54:05;;;;;;;0.17;0.17;;;11.90;99.90;;;;;;5028260;28;20203;-91
2022/10/08 06:56:31;;;;;;;0.10;0.10;;;12.10;99.90;;;;;;5012540;28;20624;-87
2022/10/08 06:58:57;;;;;;;0.10;0.10;;;12.20;99.90;;;;;;5028418;28;20232;-90
2022/10/08 07:01:24;;;;;;;0.10;0.10;;;12.20;99.90;;;;;;5022367;28;20192;-88
2022/10/08 07:03:55;;;;;;;0.10;0.10;;;12.20;99.90;;;;;;5024532;28;20220;-88
2022/10/08 07:06:22;;;;;;;0.10;0.10;;;12.20;99.90;;;;;;5016739;28;20441;-88
2022/10/08 07:08:52;;;;;;;0.10;0.10;;;12.30;99.90;;;;;;5022659;28;20731;-89
2022/10/08 07:11:18;;;;;;;0.10;0.10;;;12.30;99.90;;;;;;5026569;28;20468;-88
2022/10/08 07:13:44;;;;;;;0.10;0.10;;;12.30;99.90;;;;;;5022191;28;20454;-85
2022/10/08 07:16:17;;;;;;;0.10;0.10;;;12.20;99.90;;;;;;5020896;28;20307;-91
2022/10/08 07:18:44;;;;;;;0.10;0.10;;;12.20;99.90;;;;;;5027065;28;20192;-89
2022/10/08 07:21:12;;;;;;;0.10;0.10;;;12.20;99.90;;;;;;5025843;28;20446;-90
2022/10/08 07:23:38;;;;;;;0.10;0.10;;;12.20;99.90;;;;;;5018780;28;20510;-90
2022/10/08 07:26:08;;;;;;;0.10;0.10;;;12.10;99.90;;;;;;5031921;28;20530;-94
2022/10/08 07:28:36;;;;;;;0.10;0.10;;;12.00;99.90;;;;;;5039798;28;20195;-91
2022/10/08 07:31:07;;;;;;;0.10;0.10;;;11.90;99.90;;;;;;5023113;28;20438;-88
2022/10/08 07:33:33;;;;;;;0.10;0.10;;;11.80;99.90;;;;;;5030905;28;21052;-87
2022/10/08 07:36:07;;;;;;;0.10;0.10;;;11.80;99.90;;;;;;5024173;28;21195;-86
2022/10/08 07:38:32;;;;;;;0.10;0.10;;;12.00;99.90;;;;;;5025314;28;20921;-89
2022/10/08 07:40:58;;;;;;;0.10;0.10;;;12.40;99.90;;;;;;5021553;28;20481;-88
2022/10/08 07:43:23;;;;;;;0.10;0.10;;;12.80;99.90;;;;;;5028446;28;20595;-89
2022/10/08 07:45:50;;;;;;;0.10;0.10;;;13.20;99.90;;;;;;5032442;28;20651;-90
2022/10/08 07:48:17;;;;;;;0.10;0.10;;;13.10;99.90;;;;;;5036064;28;20215;-88
2022/10/08 07:50:43;;;;;;;0.10;0.10;;;12.80;99.90;;;;;;5024584;28;20450;-84
2022/10/08 07:53:08;;;;;;;0.10;0.10;;;12.30;99.90;;;;;;5026472;28;20823;-85
2022/10/08 07:55:34;;;;;;;0.10;0.10;;;12.10;99.90;;;;;;5020722;28;20184;-85
2022/10/08 07:57:59;;;;;;;0.10;0.10;;;11.80;99.90;;;;;;5025028;28;20630;-82
2022/10/08 08:00:25;;;;;;;0.10;0.10;;;11.70;99.90;;;;;;5027086;28;20752;-85
2022/10/08 08:02:50;;;;;;;0.10;0.10;;;11.60;99.90;;;;;;5024148;28;20215;-86
2022/10/08 08:05:16;;;;;;;0.10;0.10;;;11.50;99.90;;;;;;5018906;28;20180;-86
2022/10/08 08:07:41;;;;;;;0.10;0.10;;;11.50;99.90;;;;;;5021332;28;20709;-84
2022/10/08 08:10:07;;;;;;;0.10;0.10;;;11.50;99.90;;;;;;5018540;28;20187;-84
2022/10/08 08:12:32;;;;;;;0.10;0.10;;;11.60;99.90;;;;;;5017857;28;20945;-83
2022/10/08 08:14:58;;;;;;;0.10;0.10;;;11.80;99.90;;;;;;5029741;28;20195;-83
2022/10/08 08:17:23;;;;;;;0.10;0.10;;;11.80;99.90;;;;;;5023647;28;20192;-84
2022/10/08 08:19:49;;;;;;;0.10;0.10;;;11.70;99.90;;;;;;5022197;28;20241;-85
2022/10/08 08:22:15;;;;;;;0.20;0.20;;;11.60;99.90;;;;;;5030243;28;20655;-85
2022/10/08 08:24:40;;;;;;;0.20;0.20;;;11.60;99.90;;;;;;5024358;28;20334;-85
2022/10/08 08:27:06;;;;;;;0.20;0.20;;;11.40;99.90;;;;;;5021668;28;20187;-85
2022/10/08 08:29:31;;;;;;;0.20;0.20;;;11.40;99.90;;;;;;5027839;28;20203;-86
2022/10/08 08:31:57;;;;;;;0.20;0.20;;;11.30;99.90;;;;;;5028518;28;20655;-85
2022/10/08 08:34:23;;;;;;;0.20;0.20;;;11.20;99.90;;;;;;5020344;28;20603;-84
2022/10/08 08:36:52;;;;;;;0.20;0.20;;;11.10;99.90;;;;;;5025170;28;20226;-84
2022/10/08 08:39:23;;;;;;;0.20;0.20;;;11.00;99.90;;;;;;5024458;28;20959;-84
2022/10/08 08:42:06;;;;;;;0.20;0.20;;;10.90;99.90;;;;;;5026851;28;20469;-84
2022/10/08 08:44:43;;;;;;;0.20;0.20;;;10.80;99.90;;;;;;5022793;28;22381;-81
2022/10/08 08:47:34;;;;;;;0.20;0.20;;;10.70;99.90;;;;;;5027938;28;20448;-80
2022/10/08 08:50:03;;;;;;;0.20;0.20;;;10.60;99.90;;;;;;5023459;28;20941;-80
2022/10/08 08:52:33;;;;;;;0.30;0.30;;;10.50;99.90;;;;;;5026573;28;20521;-79
2022/10/08 08:55:00;;;;;;;0.20;0.20;;;10.30;99.90;;;;;;5026340;28;20438;-78
2022/10/08 08:57:31;;;;;;;0.20;0.20;;;10.30;99.90;;;;;;5011114;28;20918;-78
2022/10/08 09:00:03;;;;;;;0.20;0.20;;;10.30;99.90;;;;;;5025957;28;20453;-78
2022/10/08 09:02:34;;;;;;;0.20;0.20;;;10.20;99.90;;;;;;5024162;28;20467;-78
2022/10/08 09:05:03;;;;;;;0.20;0.20;;;10.20;99.90;;;;;;5021459;28;20456;-78
2022/10/08 09:07:40;;;;;;;0.20;0.20;;;10.10;99.90;;;;;;5020995;28;20453;-78
2022/10/08 09:10:08;;;;;;;0.20;0.20;;;10.20;99.90;;;;;;5025351;28;21237;-78
2022/10/08 09:12:40;;;;;;;0.20;0.20;;;10.20;99.90;;;;;;5022406;28;20441;-79
2022/10/08 09:15:17;;;;;;;0.20;0.20;;;10.20;99.90;;;;;;5023821;28;20485;-78
2022/10/08 09:17:44;;;;;;;0.20;0.20;;;10.30;99.90;;;;;;5025450;28;20662;-78
2022/10/08 09:20:15;;;;;;;0.20;0.20;;;10.20;99.90;;;;;;5020888;28;20568;-79
2022/10/08 09:22:40;;;;;;;0.20;0.20;;;10.30;99.90;;;;;;5016656;28;20443;-78
2022/10/08 09:25:18;;;;;;;0.20;0.20;;;10.40;99.90;;;;;;5025697;28;20477;-79
2022/10/08 09:27:52;;;;;;;0.20;0.20;;;10.50;99.90;;;;;;5016441;28;20202;-79
2022/10/08 09:30:30;;;;;;;0.20;0.20;;;10.60;99.90;;;;;;5019883;28;20450;-79
2022/10/08 09:33:02;;;;;;;0.20;0.20;;;10.70;99.90;;;;;;5022640;28;20976;-79
2022/10/08 09:35:28;;;;;;;0.20;0.20;;;10.80;99.90;;;;;;5022087;28;20467;-79
2022/10/08 09:37:55;;;;;;;0.20;0.20;;;10.90;99.90;;;;;;5013957;28;20446;-79
2022/10/08 09:40:24;;;;;;;0.20;0.20;;;11.00;99.90;;;;;;5021776;28;20565;-79
2022/10/08 09:43:12;;;;;;;0.20;0.20;;;11.10;99.90;;;;;;5023366;28;20506;-80
2022/10/08 09:45:43;;;;;;;0.20;0.20;;;11.20;99.90;;;;;;5018732;28;20515;-79
2022/10/08 09:48:17;;;;;;;0.20;0.20;;;11.40;99.90;;;;;;5023548;28;21020;-79
2022/10/08 09:50:58;;;;;;;0.20;0.20;;;11.70;99.90;;;;;;5022142;28;20511;-79
2022/10/08 09:53:28;;;;;;;0.20;0.20;;;11.90;99.90;;;;;;5022621;28;20450;-80
2022/10/08 09:55:58;;;;;;;0.13;0.13;;;12.10;99.90;;;;;;5029202;28;20925;-79
2022/10/08 09:58:24;;;;;;;0.20;0.20;;;12.40;99.90;;;;;;5021869;28;20674;-81
2022/10/08 10:01:05;;;;;;;0.10;0.10;;;12.80;99.90;;;;;;5025373;28;20967;-80
2022/10/08 10:03:33;;;;;;;0.10;0.10;;;12.90;99.90;;;;;;5038488;28;20215;-80
2022/10/08 10:05:59;;;;;;;0.10;0.10;;;13.60;99.90;;;;;;5029160;28;20453;-79
2022/10/08 10:08:47;;;;;;;0.10;0.10;;;14.30;99.90;;;;;;5021264;28;20814;-81
2022/10/08 10:11:19;;;;;;;0.10;0.10;;;14.90;99.90;;;;;;5023737;28;20191;-84
2022/10/08 10:13:48;;;;;;;0.10;0.10;;;15.30;99.90;;;;;;5019692;28;21307;-83
2022/10/08 10:16:24;;;;;;;0.10;0.10;;;15.50;99.90;;;;;;5024299;28;20450;-84
2022/10/08 10:18:50;;;;;;;0.10;0.10;;;15.90;99.90;;;;;;5027878;28;20472;-84
2022/10/08 10:21:24;;;;;;;0.10;0.10;;;16.20;99.90;;;;;;5026480;28;20945;-83
2022/10/08 10:24:09;;;;;;;0.10;0.10;;;16.70;99.90;;;;;;5015893;28;20227;-84
2022/10/08 10:26:38;;;;;;;0.10;0.10;;;16.90;99.90;;;;;;5015146;28;20524;-84
2022/10/08 10:29:09;;;;;;;0.10;0.10;;;17.00;99.90;;;;;;5025066;28;20458;-85
2022/10/08 10:31:40;;;;;;;0.10;0.10;;;17.30;99.90;;;;;;5022988;28;20442;-87
2022/10/08 10:34:10;;;;;;;0.10;0.10;;;17.30;99.90;;;;;;5017997;28;20446;-85
2022/10/08 10:36:46;;;;;;;0.10;0.10;;;17.20;99.90;;;;;;5025569;28;20446;-88
2022/10/08 10:39:54;;;;;;;0.10;0.10;;;17.60;99.90;;;;;;5012778;28;20525;-86
2022/10/08 10:42:42;;;;;;;0.10;0.10;;;17.90;99.90;;;;;;5012245;28;20449;-84
2022/10/08 10:45:23;;;;;;;0.10;0.10;;;18.20;99.90;;;;;;5024702;28;20465;-86
2022/10/08 10:47:49;;;;;;;0.10;0.07;;;18.60;99.90;;;;;;5037577;28;20499;-86
2022/10/08 10:50:23;;;;;;;0.00;0.00;;;18.30;99.90;;;;;;5020575;28;20434;-87
2022/10/08 10:53:19;;;;;;;0.00;0.00;;;18.20;99.90;;;;;;5030983;28;20507;-86
2022/10/08 10:56:19;;;;;;;0.10;0.10;;;18.80;99.90;;;;;;5021524;28;20449;-90
2022/10/08 10:59:10;;;;;;;0.00;0.00;;;19.00;99.90;;;;;;5028701;28;20513;-88
2022/10/08 11:02:05;;;;;;;0.00;0.00;;;19.20;99.90;;;;;;5021031;28;20452;-84
2022/10/08 11:05:04;;;;;;;0.10;0.10;;;17.70;99.90;;;;;;5014059;28;20970;-84
2022/10/08 11:07:45;;;;;;;0.10;0.10;;;16.10;99.90;;;;;;5026374;28;20445;-83
2022/10/08 11:10:42;;;;;;;0.10;0.10;;;14.40;99.90;;;;;;5027357;28;20452;-83
2022/10/08 11:13:39;;;;;;;0.10;0.10;;;13.60;99.90;;;;;;5007007;28;20463;-80
2022/10/08 11:16:21;;;;;;;0.10;0.10;;;13.20;99.90;;;;;;5025892;28;20570;-81
2022/10/08 11:18:59;;;;;;;0.10;0.10;;;13.00;99.90;;;;;;5031424;28;20446;-80
2022/10/08 11:21:41;;;;;;;0.10;0.10;;;12.30;99.90;;;;;;5025634;28;20533;-79
2022/10/08 11:24:07;;;;;;;0.10;0.10;;;11.90;99.90;;;;;;5017730;28;20589;-79
2022/10/08 11:26:43;;;;;;;0.10;0.10;;;12.40;99.90;;;;;;5029415;28;20553;-79
2022/10/08 11:29:25;;;;;;;0.10;0.10;;;12.80;99.90;;;;;;5026932;28;20195;-81
2022/10/08 11:31:51;;;;;;;0.10;0.10;;;12.80;99.90;;;;;;5024104;28;20803;-81
2022/10/08 11:34:31;;;;;;;0.10;0.10;;;12.90;99.90;;;;;;5029232;28;20470;-83
2022/10/08 11:37:20;;;;;;;0.10;0.10;;;13.00;99.90;;;;;;5028673;28;20460;-80
2022/10/08 11:39:59;;;;;;;0.10;0.10;;;13.00;99.90;;;;;;5019403;28;20638;-80
2022/10/08 11:42:52;;;;;;;0.10;0.10;;;14.30;99.90;;;;;;5021402;28;20445;-80
2022/10/08 11:45:24;;;;;;;0.10;0.10;;;15.40;99.90;;;;;;5029299;28;20857;-83
2022/10/08 11:47:53;;;;;;;0.10;0.10;;;16.50;99.90;;;;;;5024199;28;20956;-83
2022/10/08 11:50:31;;;;;;;0.10;0.07;;;17.00;99.90;;;;;;5021396;28;20952;-85
2022/10/08 11:53:09;;;;;;;0.10;0.10;;;17.80;99.90;;;;;;5025387;28;20434;-84
2022/10/08 11:55:35;;;;;;;0.10;0.00;;;18.20;99.90;;;;;;5016351;28;20449;-84
2022/10/08 11:58:04;;;;;;;0.10;0.00;;;18.80;99.90;;;;;;5016563;28;20577;-84
2022/10/08 12:00:39;;;;;;;0.10;0.00;;;19.00;99.90;;;;;;5023594;28;20439;-84
2022/10/08 12:03:25;;;;;;;0.10;0.00;;;18.70;99.90;;;;;;5019791;28;20480;-86
2022/10/08 12:05:54;;;;;;;0.10;0.00;;;18.30;99.90;;;;;;5014355;28;20454;-85
2022/10/08 12:08:51;;;;;;;0.10;0.00;;;16.90;99.90;;;;;;5025481;28;20504;-86
2022/10/08 12:11:36;;;;;;;0.10;0.10;;;15.90;99.90;;;;;;5015139;28;20461;-83
2022/10/08 12:14:21;;;;;;;0.10;0.00;;;16.90;99.90;;;;;;5024278;28;20480;-84
2022/10/08 12:16:47;;;;;;;0.03;0.00;;;18.50;99.90;;;;;;5027505;28;20500;-86
2022/10/08 12:19:33;;;;;;;0.00;0.00;;;18.60;99.90;;;;;;5026192;28;20439;-84
2022/10/08 12:22:14;;;;;;;0.10;0.00;;;18.40;99.90;;;;;;5009007;28;20218;-83
2022/10/08 12:24:39;;;;;;;0.10;0.00;;;16.70;99.90;;;;;;5023200;28;20568;-83
2022/10/08 12:27:17;;;;;;;0.10;0.00;;;16.10;99.90;;;;;;5024298;28;20611;-84
2022/10/08 12:29:59;;;;;;;0.10;0.10;;;15.80;99.90;;;;;;5028240;28;20187;-83
2022/10/08 12:32:27;;;;;;;0.10;0.10;;;15.20;99.90;;;;;;5023423;28;20442;-83
2022/10/08 12:34:54;;;;;;;0.10;0.10;;;14.70;99.90;;;;;;5026541;28;21048;-82
2022/10/08 12:37:54;;;;;;;0.10;0.10;;;15.00;99.90;;;;;;5019822;28;20573;-83
2022/10/08 12:40:46;;;;;;;0.10;0.10;;;15.50;99.90;;;;;;5028635;28;20437;-84
2022/10/08 12:43:19;;;;;;;0.10;0.10;;;16.00;99.90;;;;;;5020771;28;20469;-83
2022/10/08 12:45:55;;;;;;;0.10;0.10;;;15.60;99.90;;;;;;5021324;28;20500;-82
2022/10/08 12:48:40;;;;;;;0.10;0.10;;;15.10;99.90;;;;;;5018775;28;20512;-80
2022/10/08 12:51:34;;;;;;;0.10;0.10;;;14.40;99.90;;;;;;5017856;28;21330;-80
2022/10/08 12:54:00;;;;;;;0.10;0.10;;;14.20;99.90;;;;;;5025238;28;20959;-82
2022/10/08 12:56:28;;;;;;;0.10;0.10;;;14.20;99.90;;;;;;5028695;28;20442;-78
2022/10/08 12:58:57;;;;;;;0.10;0.10;;;15.80;99.90;;;;;;5024514;28;20187;-84
2022/10/08 13:01:24;;;;;;;0.10;0.10;;;17.80;99.90;;;;;;5015774;28;20439;-79
2022/10/08 13:04:18;;;;;;;0.10;0.00;;;18.60;99.90;;;;;;5015388;28;20626;-83
2022/10/08 13:06:44;;;;;;;0.10;0.00;;;18.00;99.90;;;;;;5033516;28;21001;-82
2022/10/08 13:09:26;;;;;;;0.10;0.00;;;17.70;99.90;;;;;;5021055;28;21184;-84